createdAt,value
2023-02-02T00:00:55.909Z,0
2023-02-02T00:11:34.958Z,0
2023-02-02T00:16:54.013Z,0
2023-02-02T00:27:31.743Z,0
2023-02-02T00:48:48.807Z,0
2023-02-02T00:54:08.190Z,0
2023-02-02T01:04:46.875Z,0
2023-02-02T01:10:06.185Z,0
2023-02-02T01:20:44.135Z,0
2023-02-02T01:36:42.569Z,0
2023-02-02T01:47:20.331Z,0
2023-02-02T01:57:58.679Z,0
2023-02-02T02:03:18.484Z,0
2023-02-02T02:13:57.240Z,0
2023-02-02T02:19:16.495Z,0
2023-02-02T02:29:54.637Z,0
2023-02-02T02:35:38.595Z,0
2023-02-02T02:51:36.842Z,0
2023-02-02T03:02:15.528Z,0
2023-02-02T03:07:34.640Z,0
2023-02-02T03:18:13.160Z,0
2023-02-02T03:34:11.231Z,0
2023-02-02T03:44:49.777Z,0
2023-02-02T03:50:09.990Z,0
2023-02-02T04:00:47.556Z,0
2023-02-02T04:16:46.242Z,0
2023-02-02T04:32:43.699Z,0
2023-02-02T04:43:22.561Z,0
2023-02-02T04:48:41.368Z,0
2023-02-02T04:59:20.417Z,0
2023-02-02T05:09:58.541Z,0
2023-02-02T05:15:17.325Z,0
2023-02-02T05:25:56.060Z,0
2023-02-02T05:41:53.597Z,0
2023-02-02T05:57:51.620Z,0
2023-02-02T06:08:29.997Z,0
2023-02-02T06:24:28.644Z,0
2023-02-02T06:29:47.798Z,0
2023-02-02T06:35:07.429Z,0
2023-02-02T06:40:26.259Z,0
2023-02-02T06:45:45.588Z,0
2023-02-02T06:51:09.691Z,3
2023-02-02T06:56:23.512Z,8
2023-02-02T07:01:43.329Z,14
2023-02-02T07:07:02.397Z,16.56
2023-02-02T07:12:21.951Z,19.45
2023-02-02T07:23:01.344Z,24.16
2023-02-02T07:33:40.322Z,24.78
2023-02-02T07:38:59.619Z,27.3
2023-02-02T07:44:19.159Z,25.99
2023-02-02T07:49:38.296Z,25.85
2023-02-02T08:00:17.207Z,37.17
2023-02-02T08:05:36.266Z,36.86
2023-02-02T08:10:55.041Z,45.19
2023-02-02T08:16:14.125Z,37.59
2023-02-02T08:26:51.717Z,31.67
2023-02-02T08:32:11.620Z,37.49
2023-02-02T08:42:50.173Z,26.92
2023-02-02T08:58:47.918Z,38.8
2023-02-02T09:09:26.739Z,45.24
2023-02-02T09:25:25.205Z,49.57
2023-02-02T09:36:04.261Z,59.87
2023-02-02T09:41:23.590Z,50.72
2023-02-02T09:52:02.043Z,66.08
2023-02-02T09:57:21.307Z,51.09
2023-02-02T10:07:59.631Z,79.9
2023-02-02T10:13:19.319Z,58.83
2023-02-02T10:23:58.104Z,63.06
2023-02-02T10:34:36.820Z,63.11
2023-02-02T10:39:55.994Z,57.62
2023-02-02T10:50:35.055Z,65.05
2023-02-02T10:55:54.331Z,72.29
2023-02-02T11:06:32.660Z,78.78
2023-02-02T11:11:51.934Z,79.68
2023-02-02T11:17:11.317Z,90.37
2023-02-02T11:22:30.504Z,64.28
2023-02-02T11:33:08.550Z,62.45
2023-02-02T11:38:27.605Z,67.75
2023-02-02T11:49:05.712Z,53.37
2023-02-02T12:05:03.550Z,58.76
2023-02-02T12:15:41.842Z,56.85
2023-02-02T12:21:01.312Z,47.98
2023-02-02T12:26:20.339Z,56.07
2023-02-02T12:31:39.423Z,53.61
2023-02-02T12:47:37.623Z,53.93
2023-02-02T12:52:56.875Z,48.26
2023-02-02T12:58:15.988Z,51.39
2023-02-02T13:03:35.086Z,56.74
2023-02-02T13:14:13.750Z,46.74
2023-02-02T13:30:11.235Z,43.75
2023-02-02T13:40:49.814Z,44.81
2023-02-02T13:46:08.710Z,40.34
2023-02-02T13:56:47.363Z,36.87
2023-02-02T14:07:27.371Z,35.46
2023-02-02T14:12:46.557Z,33
2023-02-02T14:23:24.221Z,36.7
2023-02-02T14:34:02.178Z,32.26
2023-02-02T14:39:21.691Z,32.17
2023-02-02T14:44:41.161Z,29.83
2023-02-02T14:50:00.031Z,28.23
2023-02-02T15:00:38.927Z,24.55
2023-02-02T15:05:57.964Z,23.64
2023-02-02T15:16:34.757Z,21.94
2023-02-02T15:21:53.593Z,22.49
2023-02-02T15:32:31.940Z,20.12
2023-02-02T15:43:10.013Z,20.35
2023-02-02T15:48:29.663Z,18.11
2023-02-02T15:59:08.340Z,8
2023-02-02T16:04:27.640Z,9
2023-02-02T16:09:46.874Z,7
2023-02-02T16:15:06.540Z,3
2023-02-02T16:31:03.888Z,0
2023-02-02T16:41:42.514Z,0
2023-02-02T16:47:01.837Z,0
2023-02-02T16:57:39.883Z,0
2023-02-02T17:08:18.454Z,0
2023-02-02T17:13:38.074Z,0
2023-02-02T17:24:16.734Z,0
2023-02-02T17:29:36.254Z,0
2023-02-02T17:40:15.100Z,0
2023-02-02T17:45:34.330Z,0
2023-02-02T17:56:12.636Z,0
2023-02-02T18:12:11.056Z,0
2023-02-02T18:22:49.123Z,0
2023-02-02T18:38:46.773Z,0
2023-02-02T18:54:46.525Z,0
2023-02-02T19:00:03.785Z,0
2023-02-02T19:05:23.198Z,0
2023-02-02T19:10:42.419Z,0
2023-02-02T19:16:01.905Z,0
2023-02-02T19:21:21.030Z,0
2023-02-02T19:37:18.507Z,0
2023-02-02T19:47:57.342Z,0
2023-02-02T19:53:16.262Z,0
2023-02-02T20:03:54.785Z,0
2023-02-02T20:14:33.944Z,0
2023-02-02T20:20:17.677Z,0
2023-02-02T20:32:11.383Z,0
2023-02-02T20:36:25.993Z,0
2023-02-02T20:52:12.949Z,0
2023-02-02T21:02:51.150Z,0
2023-02-02T21:08:10.609Z,0
2023-02-02T21:13:30.084Z,0
2023-02-02T21:18:49.939Z,0
2023-02-02T21:24:08.336Z,0
2023-02-02T21:29:27.830Z,0
2023-02-02T21:40:06.333Z,0
2023-02-02T21:45:25.692Z,0
2023-02-02T21:56:04.643Z,0
2023-02-02T22:01:22.477Z,0
2023-02-02T22:12:01.639Z,0
2023-02-02T22:22:40.698Z,0
2023-02-02T22:28:00.286Z,0
2023-02-02T22:38:38.452Z,0
2023-02-02T22:43:57.773Z,0
2023-02-02T22:54:36.066Z,0
2023-02-02T23:10:34.573Z,0
2023-02-02T23:21:13.634Z,0
2023-02-02T23:26:33.518Z,0
2023-02-02T23:33:07.695Z,0
2023-02-02T23:37:11.450Z,0
2023-02-02T23:47:49.517Z,0
2023-02-02T23:53:08.359Z,0
